Latest Coastal Weather Observations for Red Rocks Point

IDW60701

Issued at 10:25 am WST Saturday 2 August 2014 (issued every 10 minutes, with the page automatically refreshed every 10 minutes)

About coastal observations | Map of coastal stations | Coastal observations for WA | Marine services | Other Formats
Station Details ID: 011053 Name: RED ROCKS POINT Lat: -32.20 Lon: 127.53 Height: 3.1 m
Data from the previous 72 hours. | See also: Recent months for locations in Western Australia
Date/Time
WST
Temp

°C
Wind Pressure Rain
since 9am
mm
Weather Cloud Vis
km
Sea
Height
m
Swell
Dir
 
Speed
knots
Gust
knots
hPa Trend Height
m
Period
s
Dir
02/10:00am 15.4 N 10 16 1029.2 - 0.0 - - - - - - -
02/09:30am 14.6 N 10 15 1029.4 - 0.0 - - - - - - -
02/09:00am 14.1 NNE 9 13 1029.2 - 0.0 - - - - - - -
02/08:30am 13.0 NNE 8 11 1029.2 - 0.0 - - - - - - -
02/08:00am 11.5 NNE 6 8 1029.2 - 0.0 - - - - - - -
02/07:30am 10.1 NNE 6 9 1029.0 - 0.0 - - - - - - -
02/07:00am 8.9 N 5 6 1028.7 - 0.0 - - - - - - -
02/06:30am 8.5 N 5 6 1028.6 - 0.0 - - - - - - -
02/06:00am 8.8 N 5 6 1028.6 - 0.0 - - - - - - -
02/05:30am 8.4 N 5 6 1028.6 - 0.0 - - - - - - -
02/05:00am 8.3 N 5 6 1028.4 - 0.0 - - - - - - -
02/04:30am 8.1 N 5 6 1028.4 - 0.0 - - - - - - -
02/04:00am 8.3 N 5 6 1028.3 - 0.0 - - - - - - -
02/03:30am 8.7 N 6 7 1028.5 - 0.0 - - - - - - -
02/03:00am 8.4 N 6 7 1028.6 - 0.0 - - - - - - -
02/02:30am 8.1 N 6 7 1028.8 - 0.0 - - - - - - -
02/02:00am 7.4 N 4 6 1028.9 - 0.0 - - - - - - -
02/01:30am 7.6 N 5 7 1029.2 - 0.0 - - - - - - -
02/01:00am 7.7 N 6 7 1029.2 - 0.0 - - - - - - -
02/12:30am 7.9 NNW 6 7 1029.3 - 0.0 - - - - - - -
02/12:00am 8.4 NNW 5 6 1029.3 - 0.0 - - - - - - -
 
Date/Time
WST
Temp

°C
Wind Pressure Rain
since 9am
mm
Weather Cloud Vis
km
Sea
Height
m
Swell
Dir
 
Speed
knots
Gust
knots
hPa Trend Height
m
Period
s
Dir
01/11:30pm 9.3 N 5 6 1029.5 - 0.0 - - - - - - -
01/11:00pm 10.5 N 5 7 1029.7 - 0.0 - - - - - - -
01/10:30pm 10.4 NE 6 8 1030.0 - 0.0 - - - - - - -
01/10:00pm 10.8 NNE 7 9 1030.0 - 0.0 - - - - - - -
01/09:30pm 10.9 NE 6 9 1030.1 - 0.0 - - - - - - -
01/09:00pm 11.4 CALM 0 2 1030.1 - 0.0 - - - - - - -
01/08:30pm 10.9 CALM 0 0 1030.1 - 0.0 - - - - - - -
01/08:00pm 11.7 CALM 0 0 1029.9 - 0.0 - - - - - - -
01/07:30pm 12.2 SE 3 6 1029.8 - 0.0 - - - - - - -
01/07:00pm 12.5 ESE 6 8 1029.6 - 0.0 - - - - - - -
01/06:30pm 12.4 SE 7 9 1029.5 - 0.0 - - - - - - -
01/06:00pm 12.3 SSE 8 11 1029.3 - 0.0 - - - - - - -
01/05:30pm 12.2 SSE 9 11 1029.1 - 0.0 - - - - - - -
01/05:00pm 12.2 SSE 8 10 1028.9 - 0.0 - - - - - - -
01/04:30pm 12.2 SE 8 10 1028.6 - 0.0 - - - - - - -
01/04:00pm 12.1 SSE 10 12 1028.5 - 0.0 - - - - - - -
01/03:30pm 12.4 S 11 14 1028.5 - 0.0 - - - - - - -
01/03:00pm 12.9 S 7 8 1028.7 - 0.0 - - - - - - -
01/02:30pm 12.9 SSW 8 11 1028.5 - 0.0 - - - - - - -
01/02:00pm 13.3 SSW 11 14 1028.5 - 0.0 - - - - - - -
01/01:30pm 14.6 S 10 13 1028.5 - 0.0 - - - - - - -
01/01:00pm 15.3 SSW 9 11 1028.3 - 0.0 - - - - - - -
01/12:30pm 15.6 S 9 12 1028.5 - 0.0 - - - - - - -
01/12:00pm 14.9 S 9 13 1028.6 - 0.0 - - - - - - -
01/11:30am 15.4 S 8 11 1029.0 - 0.0 - - - - - - -
01/11:00am 14.2 S 7 11 1029.3 - 0.0 - - - - - - -
01/10:30am 13.3 SSE 9 12 1029.4 - 0.0 - - - - - - -
01/10:00am 14.2 S 7 9 1029.3 - 0.0 - - - - - - -
01/09:30am 13.5 S 8 13 1029.2 - 0.0 - - - - - - -
01/09:00am 13.2 S 8 11 1028.8 - 0.4 - - - - - - -
01/08:30am 12.7 S 11 13 1028.5 - 0.4 - - - - - - -
01/08:00am 12.4 WSW 6 9 1028.1 - 0.4 - - - - - - -
01/07:30am 11.3 WSW 5 7 1027.7 - 0.4 - - - - - - -
01/07:00am 11.1 S 10 13 1027.4 - 0.4 - - - - - - -
01/06:30am 11.5 S 17 23 1027.1 - 0.4 - - - - - - -
01/06:00am 11.4 S 11 18 1026.7 - 0.4 - - - - - - -
01/05:30am 11.9 SSW 12 18 1026.3 - 0.2 - - - - - - -
01/05:00am 12.1 S 15 21 1026.0 - 0.2 - - - - - - -
01/04:30am 11.7 WSW 8 13 1025.9 - 0.2 - - - - - - -
01/04:00am 11.9 SSW 15 19 1025.6 - 0.2 - - - - - - -
01/03:30am 11.9 SSW 14 20 1025.5 - 0.2 - - - - - - -
01/03:00am 12.2 SSW 13 18 1025.4 - 0.2 - - - - - - -
01/02:30am 11.0 WSW 8 15 1025.6 - 0.2 - - - - - - -
01/02:09am 12.2 SSW 17 27 1025.5 - 0.2 - - - - - - -
01/02:00am 11.9 S 18 24 1025.3 - 0.2 - - - - - - -
01/01:30am 11.7 SSW 14 21 1025.3 - 0.2 - - - - - - -
01/01:00am 10.5 SW 13 18 1025.4 - 0.2 - - - - - - -
01/12:30am 11.6 SW 15 23 1025.6 - 0.2 - - - - - - -
01/12:00am 12.3 SSW 19 30 1025.2 - 0.2 - - - - - - -
 
Date/Time
WST
Temp

°C
Wind Pressure Rain
since 9am
mm
Weather Cloud Vis
km
Sea
Height
m
Swell
Dir
 
Speed
knots
Gust
knots
hPa Trend Height
m
Period
s
Dir
31/11:56pm 12.6 SSW 17 30 1025.0 - 0.2 - - - - - - -
31/11:30pm 12.4 SSW 16 21 1024.9 - 0.2 - - - - - - -
31/11:00pm 12.4 SW 15 23 1025.1 - 0.2 - - - - - - -
31/10:32pm 12.1 SW 15 25 1024.9 - 0.2 - - - - - - -
31/10:30pm 11.9 SW 13 21 1024.9 - 0.2 - - - - - - -
31/10:00pm 10.7 SW 14 26 1025.1 - 0.0 - - - - - - -
31/09:40pm 12.4 SW 15 25 1025.1 - 0.0 - - - - - - -
31/09:30pm 12.7 SW 16 23 1025.0 - 0.0 - - - - - - -
31/09:12pm 12.3 SW 15 26 1024.9 - 0.0 - - - - - - -
31/09:00pm 12.2 WSW 17 25 1024.9 - 0.0 - - - - - - -
31/08:30pm 13.0 SW 16 25 1024.5 - 0.0 - - - - - - -
31/08:24pm 12.8 SW 15 26 1024.4 - 0.0 - - - - - - -
31/08:00pm 12.7 SW 17 23 1024.4 - 0.0 - - - - - - -
31/07:30pm 12.7 SW 16 27 1024.2 - 0.0 - - - - - - -
31/07:00pm 12.3 SW 18 28 1024.0 - 0.0 - - - - - - -
31/06:30pm 12.3 SW 19 31 1023.8 - 0.0 - - - - - - -
31/06:22pm 12.8 SW 16 31 1023.7 - 0.0 - - - - - - -
31/06:00pm 12.7 SW 14 19 1023.2 - 0.0 - - - - - - -
31/05:30pm 12.3 SW 13 20 1022.9 - 0.0 - - - - - - -
31/05:00pm 11.9 SW 15 25 1022.8 - 0.0 - - - - - - -
31/04:30pm 12.4 SW 17 29 1022.3 - 0.0 - - - - - - -
31/04:28pm 12.5 SW 15 25 1022.2 - 0.0 - - - - - - -
31/04:00pm 13.0 SW 14 22 1021.8 - 0.0 - - - - - - -
31/03:30pm 13.2 SW 17 24 1021.7 - 0.0 - - - - - - -
31/03:00pm 13.3 SW 16 22 1021.5 - 0.0 - - - - - - -
31/02:30pm 13.5 SW 14 19 1021.2 - 0.0 - - - - - - -
31/02:00pm 13.7 SW 16 23 1020.9 - 0.0 - - - - - - -
31/01:30pm 13.4 SW 17 25 1020.8 - 0.0 - - - - - - -
31/01:03pm 13.8 SW 17 27 1020.4 - 0.0 - - - - - - -
31/01:00pm 13.8 SW 18 27 1020.4 - 0.0 - - - - - - -
31/12:31pm 14.5 SW 17 28 1019.9 - 0.0 - - - - - - -
31/12:30pm 14.5 SW 17 26 1019.9 - 0.0 - - - - - - -
31/12:01pm 13.8 SW 19 30 1019.9 - 0.0 - - - - - - -
31/12:00pm 13.9 SW 19 28 1019.9 - 0.0 - - - - - - -
31/11:30am 14.8 SW 18 29 1019.7 - 0.0 - - - - - - -
31/11:00am 14.8 SW 19 29 1019.5 - 0.0 - - - - - - -
31/10:30am 15.0 SW 19 29 1019.5 - 0.0 - - - - - - -
31/10:12am 15.1 SW 19 29 1019.4 - 0.0 - - - - - - -
31/10:00am 15.0 SW 17 24 1019.4 - 0.0 - - - - - - -
31/09:34am 14.4 WSW 15 28 1019.1 - 0.0 - - - - - - -
31/09:30am 15.3 WSW 14 21 1018.9 - 0.0 - - - - - - -
31/09:01am 15.5 WSW 18 39 1018.6 - 0.0 - - - - - - -
31/09:00am 15.6 WSW 18 26 1018.5 - 0.4 - - - - - - -
31/08:38am 15.0 WSW 18 30 1017.8 - 0.4 - - - - - - -
31/08:30am 14.8 WSW 18 26 1017.7 - 0.4 - - - - - - -
31/08:10am 14.4 WSW 16 26 1017.4 - 0.4 - - - - - - -
31/08:00am 13.6 WSW 17 25 1017.2 - 0.4 - - - - - - -
31/07:38am 12.8 WSW 15 25 1017.2 - 0.4 - - - - - - -
31/07:30am 13.1 WSW 14 19 1016.8 - 0.4 - - - - - - -
31/07:00am 11.7 WNW 9 13 1016.5 - 0.4 - - - - - - -
31/06:30am 12.4 W 11 19 1016.1 - 0.0 - - - - - - -
31/06:00am 12.2 WNW 10 18 1015.3 - 0.0 - - - - - - -
31/05:30am 12.0 WNW 10 16 1014.8 - 0.0 - - - - - - -
31/05:00am 11.8 WNW 11 18 1014.6 - 0.0 - - - - - - -
31/04:30am 11.3 WNW 10 17 1014.1 - 0.0 - - - - - - -
31/04:00am 10.5 WNW 10 15 1014.0 - 0.0 - - - - - - -
31/03:30am 9.2 WNW 9 13 1013.9 - 0.0 - - - - - - -
31/03:00am 8.6 NW 8 12 1013.9 - 0.0 - - - - - - -
31/02:30am 8.9 NW 9 13 1014.1 - 0.0 - - - - - - -
31/02:00am 8.9 NW 8 11 1014.1 - 0.0 - - - - - - -
31/01:30am 8.8 NW 9 13 1014.3 - 0.0 - - - - - - -
31/01:00am 8.2 NW 10 13 1014.4 - 0.0 - - - - - - -
31/12:30am 8.2 NW 9 11 1014.3 - 0.0 - - - - - - -
31/12:00am 7.9 NW 8 10 1014.3 - 0.0 - - - - - - -
 
Date/Time
WST
Temp

°C
Wind Pressure Rain
since 9am
mm
Weather Cloud Vis
km
Sea
Height
m
Swell
Dir
 
Speed
knots
Gust
knots
hPa Trend Height
m
Period
s
Dir
30/11:30pm 8.6 NW 8 11 1014.6 - 0.0 - - - - - - -
30/11:00pm 9.4 NNW 6 9 1014.6 - 0.0 - - - - - - -
30/10:30pm 9.1 NNW 8 9 1014.6 - 0.0 - - - - - - -
30/10:00pm 9.0 NNW 8 9 1014.9 - 0.0 - - - - - - -
30/09:30pm 9.7 NNW 7 8 1015.1 - 0.0 - - - - - - -
30/09:00pm 10.0 NNW 7 8 1015.2 - 0.0 - - - - - - -
30/08:30pm 10.5 N 7 8 1015.4 - 0.0 - - - - - - -
30/08:00pm 10.6 N 7 7 1015.6 - 0.0 - - - - - - -
30/07:30pm 10.9 N 7 7 1015.7 - 0.0 - - - - - - -
30/07:00pm 11.4 NW 4 4 1015.9 - 0.0 - - - - - - -
30/06:30pm 11.4 W 4 4 1016.1 - 0.0 - - - - - - -
30/06:00pm 13.0 SW 5 6 1016.0 - 0.0 - - - - - - -
30/05:30pm 13.6 WSW 6 7 1015.8 - 0.0 - - - - - - -
30/05:00pm 14.7 SW 6 8 1015.5 - 0.0 - - - - - - -
30/04:30pm 15.7 WSW 6 8 1015.2 - 0.0 - - - - - - -
30/04:00pm 16.9 WSW 7 9 1015.0 - 0.0 - - - - - - -
30/03:30pm 17.4 WSW 8 12 1015.2 - 0.0 - - - - - - -
30/03:00pm 18.1 WSW 8 12 1015.4 - 0.0 - - - - - - -
30/02:30pm 18.4 SW 10 16 1015.4 - 0.0 - - - - - - -
30/02:00pm 19.0 SW 10 14 1015.4 - 0.0 - - - - - - -
30/01:30pm 22.0 W 10 15 1015.7 - 0.0 - - - - - - -
30/01:00pm 21.5 WNW 13 21 1016.0 - 0.0 - - - - - - -
30/12:30pm 21.6 W 13 23 1016.5 - 0.0 - - - - - - -
30/12:00pm 21.1 WNW 15 23 1017.1 - 0.0 - - - - - - -
30/11:30am 20.6 WNW 11 19 1017.8 - 0.0 - - - - - - -
30/11:00am 20.1 WNW 10 14 1018.7 - 0.0 - - - - - - -
30/10:30am 18.8 NW 11 15 1019.4 - 0.0 - - - - - - -

Other Formats:

Comma delimited format used in spreadsheet applications
http://www.bom.gov.au/fwo/IDW60701/IDW60701.94644.axf

JavaScript Object Notation format (JSON) in row-major order
http://www.bom.gov.au/fwo/IDW60701/IDW60701.94644.json